createdAt,value
2018-09-18T00:00:33.544Z,3.60
2018-09-18T00:01:10.107Z,2.72
2018-09-18T00:01:49.296Z,6.00
2018-09-18T00:02:25.595Z,4.96
2018-09-18T00:03:01.919Z,4.48
2018-09-18T00:03:38.135Z,8.00
2018-09-18T00:04:13.497Z,5.36
2018-09-18T00:04:49.970Z,5.44
2018-09-18T00:05:27.679Z,4.88
2018-09-18T00:06:03.743Z,3.20
2018-09-18T00:06:40.555Z,5.28
2018-09-18T00:07:16.418Z,6.00
2018-09-18T00:07:52.063Z,5.12
2018-09-18T00:08:28.068Z,3.36
2018-09-18T00:09:03.791Z,5.52
2018-09-18T00:09:39.822Z,4.24
2018-09-18T00:10:15.399Z,6.24
2018-09-18T00:10:51.452Z,6.00
2018-09-18T00:11:28.749Z,4.40
2018-09-18T00:12:05.514Z,4.32
2018-09-18T00:12:41.432Z,4.24
2018-09-18T00:13:18.125Z,3.12
2018-09-18T00:13:54.700Z,2.00
2018-09-18T00:14:30.318Z,2.48
2018-09-18T00:15:06.055Z,3.04
2018-09-18T00:15:41.709Z,4.32
2018-09-18T00:16:17.993Z,7.52
2018-09-18T00:16:53.211Z,5.60
2018-09-18T00:17:29.896Z,4.64
2018-09-18T00:18:05.881Z,8.24
2018-09-18T00:18:42.571Z,7.36
2018-09-18T00:19:18.261Z,6.32
2018-09-18T00:19:54.083Z,5.36
2018-09-18T00:20:29.963Z,3.04
2018-09-18T00:21:05.563Z,1.12
2018-09-18T00:21:40.980Z,2.88
2018-09-18T00:22:17.202Z,4.08
2018-09-18T00:22:53.104Z,8.56
2018-09-18T00:23:28.257Z,10.00
2018-09-18T00:24:04.671Z,8.72
2018-09-18T00:24:41.405Z,4.72
2018-09-18T00:25:17.304Z,7.92
2018-09-18T00:25:53.263Z,3.36
2018-09-18T00:26:29.376Z,4.16
2018-09-18T00:27:05.547Z,5.04
2018-09-18T00:27:42.600Z,2.16
2018-09-18T00:28:18.475Z,1.60
2018-09-18T00:28:53.911Z,2.80
2018-09-18T00:29:29.301Z,1.76
2018-09-18T00:30:04.796Z,3.60
2018-09-18T00:30:40.620Z,1.36
2018-09-18T00:31:19.282Z,1.28
2018-09-18T00:31:54.740Z,2.96
2018-09-18T00:32:30.582Z,3.68
2018-09-18T00:33:06.865Z,3.52
2018-09-18T00:33:42.278Z,5.12
2018-09-18T00:34:18.138Z,4.64
2018-09-18T00:34:54.597Z,2.80
2018-09-18T00:35:30.501Z,3.36
2018-09-18T00:36:06.008Z,3.44
2018-09-18T00:36:42.109Z,1.92
2018-09-18T00:37:18.113Z,2.16
2018-09-18T00:37:54.075Z,5.52
2018-09-18T00:38:31.123Z,2.24
2018-09-18T00:39:07.588Z,4.24
2018-09-18T00:39:43.392Z,1.44
2018-09-18T00:40:19.703Z,3.92
2018-09-18T00:40:54.820Z,3.04
2018-09-18T00:41:29.984Z,4.24
2018-09-18T00:42:05.185Z,3.44
2018-09-18T00:42:41.078Z,6.96
2018-09-18T00:43:16.414Z,4.56
2018-09-18T00:43:51.647Z,3.36
2018-09-18T00:44:26.984Z,4.40
2018-09-18T00:45:02.253Z,5.44
2018-09-18T00:45:37.555Z,3.60
2018-09-18T00:46:12.929Z,2.72
2018-09-18T00:46:48.272Z,4.40
2018-09-18T00:47:23.737Z,2.48
2018-09-18T00:47:59.331Z,5.76
2018-09-18T00:48:34.486Z,3.04
2018-09-18T00:49:09.839Z,1.36
2018-09-18T00:49:45.196Z,2.40
2018-09-18T00:50:20.394Z,2.24
2018-09-18T00:50:55.741Z,5.52
2018-09-18T00:51:31.826Z,3.36
2018-09-18T00:52:07.681Z,2.72
2018-09-18T00:52:43.190Z,3.36
2018-09-18T00:53:18.454Z,5.36
2018-09-18T00:53:54.002Z,3.20
2018-09-18T00:54:29.887Z,3.60
2018-09-18T00:55:05.533Z,4.16
2018-09-18T00:55:41.084Z,3.36
2018-09-18T00:56:16.376Z,2.80
2018-09-18T00:56:51.733Z,2.40
2018-09-18T00:57:27.142Z,3.52
2018-09-18T00:58:02.694Z,3.44
2018-09-18T00:58:37.940Z,3.68
2018-09-18T00:59:13.276Z,6.96
2018-09-18T00:59:48.696Z,3.04
2018-09-18T01:00:24.134Z,4.24
2018-09-18T01:00:59.345Z,3.68
2018-09-18T01:01:34.576Z,3.04
2018-09-18T01:02:09.670Z,1.36
2018-09-18T01:02:45.130Z,2.00
2018-09-18T01:03:20.585Z,4.72
2018-09-18T01:03:55.942Z,4.32
2018-09-18T01:04:31.471Z,4.64
2018-09-18T01:05:07.020Z,4.96
2018-09-18T01:05:42.532Z,2.96
2018-09-18T01:06:17.776Z,3.36
2018-09-18T01:06:53.395Z,3.44
2018-09-18T01:07:28.838Z,5.52
2018-09-18T01:08:04.056Z,3.92
2018-09-18T01:08:39.527Z,3.68
2018-09-18T01:09:14.731Z,2.16
2018-09-18T01:09:50.362Z,2.72
2018-09-18T01:10:25.688Z,2.80
2018-09-18T01:11:01.518Z,4.00
2018-09-18T01:11:36.946Z,3.68
2018-09-18T01:12:12.531Z,3.68
2018-09-18T01:12:48.162Z,3.36
2018-09-18T01:13:23.501Z,2.56
2018-09-18T01:13:59.152Z,4.08
2018-09-18T01:14:34.553Z,3.04
2018-09-18T01:15:10.526Z,5.52
2018-09-18T01:15:45.927Z,2.72
2018-09-18T01:16:21.457Z,4.96
2018-09-18T01:16:56.778Z,3.68
2018-09-18T01:17:31.910Z,4.48
2018-09-18T01:18:07.338Z,4.00
2018-09-18T01:18:42.497Z,5.60
2018-09-18T01:19:17.839Z,2.32
2018-09-18T01:19:52.955Z,3.36
2018-09-18T01:20:27.972Z,2.56
2018-09-18T01:21:03.892Z,1.60
2018-09-18T01:21:39.428Z,2.72
2018-09-18T01:22:14.946Z,2.96
2018-09-18T01:22:50.284Z,2.72
2018-09-18T01:23:25.852Z,6.32
2018-09-18T01:24:01.208Z,4.16
2018-09-18T01:24:36.564Z,3.44
2018-09-18T01:25:11.929Z,6.08
2018-09-18T01:25:47.171Z,4.96
2018-09-18T01:26:22.317Z,3.36
2018-09-18T01:26:57.545Z,3.84
2018-09-18T01:27:32.676Z,2.72
2018-09-18T01:28:08.298Z,1.76
2018-09-18T01:28:43.483Z,1.12
2018-09-18T01:29:19.211Z,1.68
2018-09-18T01:29:54.537Z,2.48
2018-09-18T01:30:29.830Z,2.56
2018-09-18T01:31:05.149Z,2.80
2018-09-18T01:31:40.257Z,4.56
2018-09-18T01:32:15.505Z,1.84
2018-09-18T01:32:50.636Z,3.84
2018-09-18T01:33:26.211Z,3.52
2018-09-18T01:34:01.845Z,3.28
2018-09-18T01:34:37.279Z,4.40
2018-09-18T01:35:12.728Z,2.40
2018-09-18T01:35:48.269Z,4.56
2018-09-18T01:36:23.367Z,2.88
2018-09-18T01:36:58.618Z,3.68
2018-09-18T01:37:33.907Z,3.12
2018-09-18T01:38:09.034Z,1.84
2018-09-18T01:38:44.008Z,1.68
2018-09-18T01:39:19.541Z,2.80
2018-09-18T01:39:54.771Z,8.00
2018-09-18T01:40:29.996Z,4.72
2018-09-18T01:41:05.133Z,2.48
2018-09-18T01:41:40.290Z,1.36
2018-09-18T01:42:15.707Z,4.88
2018-09-18T01:42:51.073Z,3.20
2018-09-18T01:44:06.635Z,4.24
2018-09-18T01:44:42.254Z,6.16
2018-09-18T01:45:18.008Z,5.28
2018-09-18T01:45:53.378Z,4.56
2018-09-18T01:46:28.854Z,3.44
2018-09-18T01:47:04.291Z,3.44
2018-09-18T01:47:39.728Z,3.36
2018-09-18T01:48:15.126Z,6.08
2018-09-18T01:48:50.402Z,3.60
2018-09-18T01:49:26.105Z,4.88
2018-09-18T01:50:01.430Z,5.84
2018-09-18T01:50:36.844Z,5.84
2018-09-18T01:51:12.193Z,5.52
2018-09-18T01:51:47.212Z,6.32
2018-09-18T01:52:22.756Z,7.44
2018-09-18T01:52:57.990Z,6.96
2018-09-18T01:53:33.475Z,4.32
2018-09-18T01:54:08.619Z,2.64
2018-09-18T01:54:43.948Z,6.80
2018-09-18T01:55:19.276Z,7.28
2018-09-18T01:55:54.706Z,8.48
2018-09-18T01:56:30.439Z,5.92
2018-09-18T01:57:05.767Z,3.76
2018-09-18T01:57:41.189Z,4.16
2018-09-18T01:58:16.749Z,3.12
2018-09-18T01:58:51.869Z,3.60
2018-09-18T01:59:27.431Z,4.96
2018-09-18T02:00:02.642Z,4.48
2018-09-18T02:00:38.387Z,4.48
2018-09-18T02:01:13.948Z,4.00
2018-09-18T02:01:49.179Z,2.40
2018-09-18T02:02:24.422Z,5.20
2018-09-18T02:02:59.708Z,3.60
2018-09-18T02:03:34.991Z,3.68
2018-09-18T02:04:10.512Z,2.96
2018-09-18T02:04:45.748Z,2.88
2018-09-18T02:05:21.161Z,2.56
2018-09-18T02:05:56.703Z,4.16
2018-09-18T02:06:32.015Z,1.52
2018-09-18T02:07:07.576Z,3.04
2018-09-18T02:07:42.803Z,5.28
2018-09-18T02:08:18.180Z,3.44
2018-09-18T02:08:53.323Z,4.80
2018-09-18T02:09:28.562Z,2.72
2018-09-18T02:10:04.073Z,2.32
2018-09-18T02:10:39.544Z,1.92
2018-09-18T02:11:14.992Z,3.52
2018-09-18T02:11:50.659Z,3.12
2018-09-18T02:12:26.881Z,3.84
2018-09-18T02:13:02.422Z,6.64
2018-09-18T02:13:37.470Z,4.48
2018-09-18T02:14:13.188Z,4.64
2018-09-18T02:14:48.221Z,4.64
2018-09-18T02:15:23.437Z,10.16
2018-09-18T02:15:58.839Z,5.28
2018-09-18T02:16:34.595Z,4.08
2018-09-18T02:17:09.816Z,5.36
2018-09-18T02:17:45.053Z,2.80
2018-09-18T02:18:20.479Z,3.60
2018-09-18T02:18:55.505Z,2.48
2018-09-18T02:19:31.274Z,4.72
2018-09-18T02:20:06.837Z,2.64
2018-09-18T02:20:42.460Z,2.40
2018-09-18T02:21:17.999Z,3.20
2018-09-18T02:21:53.535Z,4.72
2018-09-18T02:22:28.756Z,4.96
2018-09-18T02:23:03.972Z,5.36
2018-09-18T02:23:39.321Z,6.80
2018-09-18T02:24:14.624Z,3.76
2018-09-18T02:24:50.083Z,2.32
2018-09-18T02:25:25.327Z,2.08
2018-09-18T02:26:00.559Z,4.80
2018-09-18T02:26:36.108Z,2.08
2018-09-18T02:27:11.514Z,1.76
2018-09-18T02:27:47.056Z,2.56
2018-09-18T02:28:22.510Z,4.80
2018-09-18T02:28:57.762Z,5.84
2018-09-18T02:29:32.919Z,1.28
2018-09-18T02:30:08.236Z,5.76
2018-09-18T02:30:43.668Z,3.20
2018-09-18T02:31:19.377Z,3.68
2018-09-18T02:31:54.517Z,3.04
2018-09-18T02:32:29.846Z,4.32
2018-09-18T02:33:05.082Z,3.84
2018-09-18T02:33:40.807Z,5.28
2018-09-18T02:34:16.132Z,4.48
2018-09-18T02:34:51.564Z,2.40
2018-09-18T02:35:26.928Z,3.60
2018-09-18T02:36:02.448Z,2.40
2018-09-18T02:36:37.778Z,2.48
2018-09-18T02:37:12.900Z,4.32
2018-09-18T02:37:48.256Z,2.96
2018-09-18T02:38:23.698Z,1.12
2018-09-18T02:38:59.129Z,1.20
2018-09-18T02:39:34.450Z,1.68
2018-09-18T02:40:09.694Z,1.44
2018-09-18T02:40:44.826Z,2.72
2018-09-18T02:41:20.095Z,2.80
2018-09-18T02:41:55.439Z,3.68
2018-09-18T02:42:30.604Z,1.84
2018-09-18T02:43:06.127Z,1.04
2018-09-18T02:43:41.731Z,3.84
2018-09-18T02:44:17.148Z,2.24
2018-09-18T02:44:52.435Z,1.12
2018-09-18T02:45:27.978Z,1.84
2018-09-18T02:46:03.446Z,3.20
2018-09-18T02:46:38.656Z,2.72
2018-09-18T02:47:14.414Z,1.76
2018-09-18T02:47:49.831Z,4.56
2018-09-18T02:48:25.084Z,1.84
2018-09-18T02:49:00.414Z,2.56
2018-09-18T02:49:35.837Z,2.24
2018-09-18T02:50:11.235Z,2.40
2018-09-18T02:50:46.582Z,1.36
2018-09-18T02:51:21.856Z,3.28
2018-09-18T02:51:57.184Z,3.36
2018-09-18T02:52:32.509Z,0.72
2018-09-18T02:53:07.974Z,3.44
2018-09-18T02:53:43.558Z,3.04
2018-09-18T02:54:18.785Z,5.28
2018-09-18T02:54:54.340Z,5.52
2018-09-18T02:55:29.679Z,6.16
2018-09-18T02:56:04.822Z,4.96
2018-09-18T02:56:40.242Z,4.56
2018-09-18T02:57:15.384Z,6.88
2018-09-18T02:57:50.718Z,3.92
2018-09-18T02:58:26.202Z,2.56
2018-09-18T02:59:01.328Z,2.00
2018-09-18T02:59:36.678Z,7.28
2018-09-18T03:00:11.995Z,6.96
2018-09-18T03:00:47.657Z,4.32
2018-09-18T03:01:23.027Z,5.52
2018-09-18T03:01:58.328Z,5.60
2018-09-18T03:02:33.801Z,3.20
2018-09-18T03:03:09.225Z,4.08
2018-09-18T03:03:44.602Z,4.96
2018-09-18T03:04:19.930Z,4.48
2018-09-18T03:04:55.383Z,4.08
2018-09-18T03:05:30.605Z,7.68
2018-09-18T03:06:05.966Z,2.72
2018-09-18T03:06:41.692Z,4.64
2018-09-18T03:07:17.145Z,4.72
2018-09-18T03:07:52.464Z,3.52
2018-09-18T03:08:27.925Z,2.72
2018-09-18T03:09:03.041Z,2.24
2018-09-18T03:09:38.272Z,2.00
2018-09-18T03:10:13.803Z,3.12
2018-09-18T03:10:49.633Z,3.52
2018-09-18T03:11:24.782Z,1.04
2018-09-18T03:11:59.987Z,0.72
2018-09-18T03:12:35.203Z,2.00
2018-09-18T03:13:10.890Z,1.28
2018-09-18T03:13:46.043Z,2.88
2018-09-18T03:14:21.747Z,2.40
2018-09-18T03:14:57.368Z,3.76
2018-09-18T03:15:32.893Z,4.08
2018-09-18T03:16:08.441Z,1.60
2018-09-18T03:16:43.773Z,3.52
2018-09-18T03:17:19.108Z,3.60
2018-09-18T03:17:54.513Z,4.64
2018-09-18T03:18:29.998Z,2.48
2018-09-18T03:19:05.400Z,4.48
2018-09-18T03:19:40.845Z,4.72
2018-09-18T03:20:16.362Z,3.20
2018-09-18T03:20:51.805Z,2.32
2018-09-18T03:21:27.722Z,1.28
2018-09-18T03:22:03.054Z,1.68
2018-09-18T03:22:38.169Z,1.44
2018-09-18T03:23:13.609Z,1.44
2018-09-18T03:23:49.035Z,3.04
2018-09-18T03:24:24.600Z,3.76
2018-09-18T03:24:59.908Z,6.32
2018-09-18T03:25:35.328Z,5.60
2018-09-18T03:26:10.744Z,7.04
2018-09-18T03:26:46.475Z,6.88
2018-09-18T03:27:21.852Z,4.72
2018-09-18T03:27:57.322Z,4.72
2018-09-18T03:28:32.778Z,3.68
2018-09-18T03:29:08.291Z,2.08
2018-09-18T03:29:43.628Z,1.84
2018-09-18T03:30:18.740Z,2.56
2018-09-18T03:30:53.992Z,1.92
2018-09-18T03:31:29.364Z,1.60
2018-09-18T03:32:04.801Z,2.48
2018-09-18T03:32:39.995Z,1.28
2018-09-18T03:33:15.447Z,2.00
2018-09-18T03:33:50.972Z,2.72
2018-09-18T03:34:26.533Z,2.00
2018-09-18T03:35:01.747Z,1.60
2018-09-18T03:35:37.276Z,2.24
2018-09-18T03:36:12.441Z,1.92
2018-09-18T03:36:47.991Z,2.56
2018-09-18T03:37:23.603Z,3.36
2018-09-18T03:37:58.963Z,1.52
2018-09-18T03:38:34.097Z,1.44
2018-09-18T03:39:09.224Z,1.84
2018-09-18T03:39:44.778Z,1.76
2018-09-18T03:40:20.109Z,1.68
2018-09-18T03:40:55.421Z,0.96
2018-09-18T03:41:30.948Z,1.52
2018-09-18T03:42:06.455Z,0.64
2018-09-18T03:42:41.685Z,1.36
2018-09-18T03:43:17.191Z,1.12
2018-09-18T03:43:52.736Z,0.80
2018-09-18T03:44:28.098Z,1.84
2018-09-18T03:45:03.199Z,2.08
2018-09-18T03:45:38.633Z,1.76
2018-09-18T03:46:13.860Z,1.12
2018-09-18T03:46:49.521Z,0.64
2018-09-18T03:47:24.865Z,2.48
2018-09-18T03:48:00.487Z,1.44
2018-09-18T03:48:35.721Z,3.20
2018-09-18T03:49:10.990Z,1.52
2018-09-18T03:49:46.531Z,0.88
2018-09-18T03:50:21.958Z,1.84
2018-09-18T03:50:57.496Z,2.40
2018-09-18T03:51:32.952Z,2.64
2018-09-18T03:52:08.366Z,1.12
2018-09-18T03:52:43.895Z,2.00
2018-09-18T03:53:19.488Z,1.76
2018-09-18T03:53:54.619Z,4.32
2018-09-18T03:54:29.818Z,1.20
2018-09-18T03:55:04.945Z,0.56
2018-09-18T03:55:40.670Z,1.60
2018-09-18T03:56:16.121Z,1.36
2018-09-18T03:56:51.653Z,0.56
2018-09-18T03:57:27.075Z,1.44
2018-09-18T03:58:02.786Z,0.88
2018-09-18T03:58:38.049Z,0.80
2018-09-18T03:59:13.146Z,1.60
2018-09-18T03:59:48.397Z,1.20
2018-09-18T04:00:23.806Z,0.96
2018-09-18T04:00:59.034Z,0.40
2018-09-18T04:01:34.587Z,1.68
2018-09-18T04:02:10.033Z,1.36
2018-09-18T04:02:45.391Z,1.12
2018-09-18T04:03:21.000Z,2.00
2018-09-18T04:03:56.460Z,1.04
2018-09-18T04:04:31.891Z,1.68
2018-09-18T04:05:07.283Z,1.68
2018-09-18T04:05:42.722Z,1.04
2018-09-18T04:06:18.125Z,2.08
2018-09-18T04:06:53.590Z,1.04
2018-09-18T04:07:28.690Z,1.60
2018-09-18T04:08:04.317Z,0.16
2018-09-18T04:08:40.089Z,0.40
2018-09-18T04:09:15.365Z,0.16
2018-09-18T04:09:50.704Z,0.88
2018-09-18T04:10:25.928Z,0.88
2018-09-18T04:11:01.150Z,2.48
2018-09-18T04:11:36.583Z,1.44
2018-09-18T04:12:11.911Z,0.64
2018-09-18T04:12:47.169Z,1.20
2018-09-18T04:13:22.580Z,2.48
2018-09-18T04:13:58.235Z,0.48
2018-09-18T04:14:33.951Z,2.48
2018-09-18T04:15:09.396Z,1.84
2018-09-18T04:15:44.834Z,2.00
2018-09-18T04:16:20.198Z,0.72
2018-09-18T04:16:55.646Z,0.72
2018-09-18T04:17:31.322Z,1.28
2018-09-18T04:18:06.607Z,2.32
2018-09-18T04:18:41.864Z,2.08
2018-09-18T04:19:17.117Z,0.72
2018-09-18T04:19:52.532Z,0.64
2018-09-18T04:20:28.186Z,2.40
2018-09-18T04:21:03.492Z,1.60
2018-09-18T04:21:38.923Z,1.52
2018-09-18T04:22:14.197Z,2.00
2018-09-18T04:22:49.637Z,1.36
2018-09-18T04:23:25.364Z,1.76
2018-09-18T04:24:00.791Z,2.08
2018-09-18T04:24:36.088Z,3.68
2018-09-18T04:25:11.508Z,1.28
2018-09-18T04:25:46.858Z,1.84
2018-09-18T04:26:22.062Z,2.16
2018-09-18T04:26:57.241Z,2.88
2018-09-18T04:27:32.571Z,1.36
2018-09-18T04:28:08.290Z,0.72
2018-09-18T04:28:43.906Z,1.68
2018-09-18T04:29:19.394Z,1.36
2018-09-18T04:29:54.750Z,2.32
2018-09-18T04:30:29.995Z,1.52
2018-09-18T04:31:05.088Z,2.72
2018-09-18T04:31:40.570Z,1.76
2018-09-18T04:32:15.983Z,1.84
2018-09-18T04:32:51.846Z,1.36
2018-09-18T04:33:27.254Z,2.56
2018-09-18T04:34:02.388Z,2.32
2018-09-18T04:34:37.709Z,1.76
2018-09-18T04:35:13.178Z,0.72
2018-09-18T04:35:48.370Z,1.44
2018-09-18T04:36:23.827Z,2.72
2018-09-18T04:36:59.039Z,1.92
2018-09-18T04:37:33.972Z,2.08
2018-09-18T04:38:09.412Z,1.20
2018-09-18T04:38:44.557Z,1.36
2018-09-18T04:39:20.170Z,1.68
2018-09-18T04:39:55.387Z,2.24
2018-09-18T04:40:30.531Z,1.60
2018-09-18T04:41:05.865Z,2.24
2018-09-18T04:41:41.179Z,1.44
2018-09-18T04:42:16.716Z,1.36
2018-09-18T04:42:52.612Z,1.84
2018-09-18T04:43:28.060Z,2.16
2018-09-18T04:44:03.260Z,1.20
2018-09-18T04:44:38.793Z,1.76
2018-09-18T04:45:14.281Z,0.96
2018-09-18T04:45:49.648Z,1.60
2018-09-18T04:46:24.969Z,1.52
2018-09-18T04:47:00.395Z,0.88
2018-09-18T04:47:35.998Z,0.96
2018-09-18T04:48:11.445Z,1.20
2018-09-18T04:48:46.760Z,0.48
2018-09-18T04:49:22.136Z,1.84
2018-09-18T04:49:57.569Z,1.44
2018-09-18T04:50:33.051Z,1.28
2018-09-18T04:51:08.439Z,1.60
2018-09-18T04:51:43.876Z,1.60
2018-09-18T04:52:19.505Z,1.12
2018-09-18T04:52:55.048Z,0.56
2018-09-18T04:53:30.484Z,0.80
2018-09-18T04:54:05.630Z,1.76
2018-09-18T04:54:40.951Z,2.24
2018-09-18T04:55:16.466Z,1.04
2018-09-18T04:55:52.078Z,1.60
2018-09-18T04:56:27.533Z,1.52
2018-09-18T04:57:02.969Z,1.44
2018-09-18T04:57:38.436Z,1.52
2018-09-18T04:58:13.759Z,2.40
2018-09-18T04:58:48.989Z,1.52
2018-09-18T04:59:24.294Z,3.20
2018-09-18T05:00:00.129Z,0.88
2018-09-18T05:00:35.547Z,1.04
2018-09-18T05:01:10.874Z,2.32
2018-09-18T05:01:46.307Z,2.08
2018-09-18T05:02:21.440Z,0.96
2018-09-18T05:02:56.855Z,0.32
2018-09-18T05:03:32.212Z,1.36
2018-09-18T05:04:07.547Z,0.56
2018-09-18T05:04:43.092Z,2.00
2018-09-18T05:05:18.613Z,1.76
2018-09-18T05:05:54.175Z,1.12
2018-09-18T05:06:29.280Z,1.44
2018-09-18T05:07:05.126Z,1.44
2018-09-18T05:07:40.953Z,1.04
2018-09-18T05:08:16.390Z,1.12
2018-09-18T05:08:51.941Z,1.20
2018-09-18T05:09:27.411Z,1.28
2018-09-18T05:10:02.791Z,1.36
2018-09-18T05:10:40.006Z,1.52
2018-09-18T05:11:15.326Z,2.88
2018-09-18T05:11:50.669Z,1.68
2018-09-18T05:12:26.007Z,2.24
2018-09-18T05:13:01.057Z,2.32
2018-09-18T05:13:36.397Z,2.08
2018-09-18T05:14:11.848Z,1.12
2018-09-18T05:14:46.974Z,2.80
2018-09-18T05:15:22.333Z,0.16
2018-09-18T05:15:57.571Z,3.20
2018-09-18T05:16:32.803Z,0.80
2018-09-18T05:17:08.515Z,2.08
2018-09-18T05:17:44.216Z,1.52
2018-09-18T05:18:19.518Z,0.72
2018-09-18T05:18:55.046Z,0.64
2018-09-18T05:19:30.285Z,1.68
2018-09-18T05:20:05.534Z,0.40
2018-09-18T05:20:41.025Z,1.20
2018-09-18T05:21:16.255Z,0.00
2018-09-18T05:21:51.488Z,0.00
2018-09-18T05:22:26.771Z,0.32
2018-09-18T05:23:02.053Z,1.20
2018-09-18T05:23:37.295Z,0.80
2018-09-18T05:24:12.705Z,1.44
2018-09-18T05:24:47.994Z,1.76
2018-09-18T05:25:23.331Z,0.72
2018-09-18T05:25:58.667Z,1.52
2018-09-18T05:26:33.805Z,1.04
2018-09-18T05:27:09.462Z,1.60
2018-09-18T05:27:45.075Z,2.40
2018-09-18T05:28:20.343Z,2.40
2018-09-18T05:28:55.941Z,2.72
2018-09-18T05:29:31.277Z,3.12
2018-09-18T05:30:06.899Z,2.32
2018-09-18T05:30:42.643Z,2.32
2018-09-18T05:31:18.677Z,2.96
2018-09-18T05:31:54.333Z,1.44
2018-09-18T05:32:29.875Z,1.68
2018-09-18T05:33:05.143Z,1.76
2018-09-18T05:33:40.672Z,2.56
2018-09-18T05:34:16.067Z,2.88
2018-09-18T05:34:51.650Z,2.48
2018-09-18T05:35:27.017Z,1.52
2018-09-18T05:36:02.443Z,0.48
2018-09-18T05:36:38.206Z,1.44
2018-09-18T05:37:13.928Z,2.08
2018-09-18T05:37:49.229Z,0.56
2018-09-18T05:38:24.657Z,1.92
2018-09-18T05:39:00.067Z,0.80
2018-09-18T05:39:35.540Z,1.36
2018-09-18T05:40:10.725Z,2.72
2018-09-18T05:40:46.024Z,2.08
2018-09-18T05:41:21.281Z,1.04
2018-09-18T05:41:56.541Z,1.76
2018-09-18T05:42:31.936Z,0.24
2018-09-18T05:43:07.068Z,2.08
2018-09-18T05:43:42.555Z,1.20
2018-09-18T05:44:17.958Z,1.12
2018-09-18T05:44:53.515Z,3.36
2018-09-18T05:45:29.148Z,1.68
2018-09-18T05:46:04.203Z,1.44
2018-09-18T05:46:39.442Z,1.60
2018-09-18T05:47:14.976Z,2.48
2018-09-18T05:47:50.312Z,2.72
2018-09-18T05:48:25.974Z,2.32
2018-09-18T05:49:01.476Z,2.72
2018-09-18T05:49:36.749Z,1.68
2018-09-18T05:50:12.050Z,2.40
2018-09-18T05:50:47.480Z,2.16
2018-09-18T05:51:22.814Z,1.44
2018-09-18T05:51:58.168Z,3.20
2018-09-18T05:52:33.894Z,1.44
2018-09-18T05:53:09.472Z,1.60
2018-09-18T05:53:44.845Z,1.76
2018-09-18T05:54:20.315Z,2.48
2018-09-18T05:54:55.872Z,2.96
2018-09-18T05:55:31.141Z,2.08
2018-09-18T05:56:06.565Z,2.88
2018-09-18T05:56:42.049Z,3.68
2018-09-18T05:57:17.730Z,1.76
2018-09-18T05:57:53.016Z,2.72
2018-09-18T05:58:28.417Z,3.04
2018-09-18T05:59:03.926Z,2.32
2018-09-18T05:59:39.462Z,2.64
2018-09-18T06:00:14.989Z,2.16
2018-09-18T06:00:50.419Z,2.64
2018-09-18T06:01:25.884Z,3.20
2018-09-18T06:02:01.107Z,3.36
2018-09-18T06:02:36.494Z,2.96
2018-09-18T06:03:11.774Z,2.40
2018-09-18T06:03:47.446Z,2.40
2018-09-18T06:04:22.565Z,3.68
2018-09-18T06:04:58.329Z,2.64
2018-09-18T06:05:33.380Z,1.92
2018-09-18T06:06:08.969Z,1.52
2018-09-18T06:06:44.270Z,3.84
2018-09-18T06:07:19.506Z,3.68
2018-09-18T06:07:54.726Z,2.72
2018-09-18T06:08:29.963Z,2.48
2018-09-18T06:09:05.287Z,2.64
2018-09-18T06:09:40.389Z,3.36
2018-09-18T06:10:15.826Z,3.44
2018-09-18T06:10:51.336Z,3.92
2018-09-18T06:11:26.692Z,2.64
2018-09-18T06:12:02.032Z,3.92
2018-09-18T06:12:37.679Z,3.28
2018-09-18T06:13:12.958Z,3.44
2018-09-18T06:13:48.283Z,1.68
2018-09-18T06:14:23.642Z,2.56
2018-09-18T06:14:59.154Z,4.56
2018-09-18T06:15:34.810Z,2.32
2018-09-18T06:16:10.571Z,2.64
2018-09-18T06:16:45.793Z,2.80
2018-09-18T06:17:21.231Z,2.16
2018-09-18T06:17:56.602Z,2.00
2018-09-18T06:18:31.976Z,2.32
2018-09-18T06:19:07.224Z,2.08
2018-09-18T06:19:42.542Z,2.72
2018-09-18T06:20:18.113Z,1.84
2018-09-18T06:20:53.885Z,1.84
2018-09-18T06:21:29.484Z,1.12
2018-09-18T06:22:04.739Z,0.40
2018-09-18T06:22:40.123Z,0.00
2018-09-18T06:23:15.522Z,0.00
2018-09-18T06:23:50.977Z,0.00
2018-09-18T06:24:26.497Z,0.48
2018-09-18T06:25:02.257Z,1.68
2018-09-18T06:25:37.498Z,1.44
2018-09-18T06:26:12.938Z,0.48
2018-09-18T06:26:48.256Z,2.56
2018-09-18T06:27:23.723Z,0.96
2018-09-18T06:27:59.270Z,0.16
2018-09-18T06:28:34.725Z,0.00
2018-09-18T06:29:10.308Z,0.48
2018-09-18T06:29:46.037Z,0.24
2018-09-18T06:30:21.560Z,0.00
2018-09-18T06:30:56.800Z,0.08
2018-09-18T06:31:32.068Z,0.00
2018-09-18T06:32:07.897Z,0.32
2018-09-18T06:32:43.143Z,0.88
2018-09-18T06:33:18.688Z,0.32
2018-09-18T06:33:53.994Z,0.08
2018-09-18T06:34:29.726Z,0.08
2018-09-18T06:35:04.984Z,0.96
2018-09-18T06:35:40.333Z,1.20
2018-09-18T06:36:15.681Z,1.68
2018-09-18T06:36:51.265Z,0.96
2018-09-18T06:37:26.583Z,0.88
2018-09-18T06:38:01.719Z,1.68
2018-09-18T06:38:37.059Z,1.44
2018-09-18T06:39:12.397Z,2.72
2018-09-18T06:39:47.764Z,1.92
2018-09-18T06:40:22.898Z,2.24
2018-09-18T06:40:58.275Z,1.36
2018-09-18T06:41:33.702Z,0.72
2018-09-18T06:42:09.323Z,1.60
2018-09-18T06:42:44.619Z,1.60
2018-09-18T06:43:19.875Z,0.40
2018-09-18T06:43:55.391Z,0.08
2018-09-18T06:44:30.963Z,0.08
2018-09-18T06:45:06.396Z,2.80
2018-09-18T06:45:41.537Z,4.56
2018-09-18T06:46:16.764Z,3.68
2018-09-18T06:46:51.901Z,2.00
2018-09-18T06:47:27.163Z,1.84
2018-09-18T06:48:02.452Z,1.92
2018-09-18T06:48:38.270Z,4.00
2018-09-18T06:49:13.524Z,3.04
2018-09-18T06:49:48.760Z,2.56
2018-09-18T06:50:24.307Z,1.76
2018-09-18T06:50:59.612Z,3.28
2018-09-18T06:51:35.151Z,1.20
2018-09-18T06:52:10.782Z,1.92
2018-09-18T06:52:46.556Z,0.24
2018-09-18T06:53:22.090Z,0.48
2018-09-18T06:53:57.415Z,1.84
2018-09-18T06:54:32.955Z,2.64
2018-09-18T06:55:08.344Z,3.20
2018-09-18T06:55:44.085Z,5.04
2018-09-18T06:56:19.314Z,3.04
2018-09-18T06:56:54.645Z,5.92
2018-09-18T06:57:30.106Z,2.96
2018-09-18T06:58:05.595Z,3.84
2018-09-18T06:58:40.670Z,3.60
2018-09-18T06:59:15.790Z,2.40
2018-09-18T06:59:50.949Z,2.80
2018-09-18T07:00:27.474Z,2.08
2018-09-18T07:01:02.929Z,2.80
2018-09-18T07:01:38.353Z,3.36
2018-09-18T07:02:13.782Z,6.32
2018-09-18T07:02:48.909Z,4.56
2018-09-18T07:03:24.344Z,3.92
2018-09-18T07:03:59.642Z,5.20
2018-09-18T07:04:34.880Z,2.96
2018-09-18T07:05:10.316Z,5.60
2018-09-18T07:05:45.871Z,2.40
2018-09-18T07:06:21.156Z,0.88
2018-09-18T07:06:56.891Z,3.28
2018-09-18T07:07:32.320Z,3.84
2018-09-18T07:08:07.545Z,5.52
2018-09-18T07:08:43.020Z,2.72
2018-09-18T07:09:18.654Z,6.16
2018-09-18T07:09:53.977Z,5.84
2018-09-18T07:10:29.454Z,2.96
2018-09-18T07:11:05.195Z,2.32
2018-09-18T07:11:40.821Z,1.28
2018-09-18T07:12:16.233Z,1.68
2018-09-18T07:12:51.373Z,1.84
2018-09-18T07:13:26.529Z,3.44
2018-09-18T07:14:01.910Z,2.16
2018-09-18T07:14:37.448Z,1.76
2018-09-18T07:15:13.134Z,1.20
2018-09-18T07:15:48.433Z,2.88
2018-09-18T07:16:23.799Z,1.68
2018-09-18T07:16:59.256Z,6.16
2018-09-18T07:17:34.663Z,5.52
2018-09-18T07:18:10.475Z,3.36
2018-09-18T07:18:45.891Z,4.72
2018-09-18T07:19:21.760Z,5.28
2018-09-18T07:19:57.406Z,4.56
2018-09-18T07:20:33.105Z,3.68
2018-09-18T07:21:08.440Z,2.88
2018-09-18T07:21:43.901Z,2.72
2018-09-18T07:22:19.022Z,4.80
2018-09-18T07:22:54.452Z,3.20
2018-09-18T07:23:29.787Z,5.52
2018-09-18T07:24:05.409Z,5.84
2018-09-18T07:24:40.694Z,3.12
2018-09-18T07:25:16.193Z,3.20
2018-09-18T07:25:51.851Z,2.80
2018-09-18T07:26:27.580Z,4.40
2018-09-18T07:27:03.313Z,6.16
2018-09-18T07:27:38.684Z,4.32
2018-09-18T07:28:13.843Z,5.68
2018-09-18T07:28:49.376Z,2.72
2018-09-18T07:29:24.995Z,2.80
2018-09-18T07:30:00.199Z,3.52
2018-09-18T07:30:35.675Z,6.00
2018-09-18T07:31:11.159Z,6.64
2018-09-18T07:31:46.294Z,2.72
2018-09-18T07:32:21.622Z,4.56
2018-09-18T07:32:57.205Z,3.04
2018-09-18T07:33:32.836Z,3.84
2018-09-18T07:34:08.289Z,3.84
2018-09-18T07:34:43.543Z,1.92
2018-09-18T07:35:19.118Z,4.88
2018-09-18T07:35:54.365Z,4.40
2018-09-18T07:36:29.689Z,4.32
2018-09-18T07:37:05.013Z,3.60
2018-09-18T07:37:40.775Z,3.04
2018-09-18T07:38:16.443Z,5.28
2018-09-18T07:38:52.428Z,5.84
2018-09-18T07:39:27.708Z,7.04
2018-09-18T07:40:03.140Z,2.80
2018-09-18T07:40:38.608Z,4.64
2018-09-18T07:41:13.982Z,3.36
2018-09-18T07:41:49.489Z,4.32
2018-09-18T07:42:24.653Z,8.32
2018-09-18T07:43:00.083Z,5.84
2018-09-18T07:43:35.836Z,4.80
2018-09-18T07:44:11.373Z,6.40
2018-09-18T07:44:47.131Z,3.44
2018-09-18T07:45:22.384Z,3.60
2018-09-18T07:45:58.260Z,2.00
2018-09-18T07:46:33.923Z,6.08
2018-09-18T07:47:09.346Z,7.12
2018-09-18T07:47:44.998Z,4.56
2018-09-18T07:48:20.926Z,5.44
2018-09-18T07:48:56.387Z,6.24
2018-09-18T07:49:31.908Z,4.40
2018-09-18T07:50:07.341Z,3.52
2018-09-18T07:50:42.632Z,5.60
2018-09-18T07:51:18.095Z,3.68
2018-09-18T07:51:53.538Z,5.20
2018-09-18T07:52:28.768Z,3.12
2018-09-18T07:53:04.403Z,2.64